sensor_id;sensor_type;location;lat;lon;timestamp;pressure;altitude;pressure_sealevel;temperature;humidity
55675;BME280;41562;44.330;23.802;2023-02-28T00:02:11;101123.78;;;5.89;100.00
55675;BME280;41562;44.330;23.802;2023-02-28T00:04:38;101122.22;;;5.81;100.00
55675;BME280;41562;44.330;23.802;2023-02-28T00:07:05;101120.72;;;5.85;100.00
55675;BME280;41562;44.330;23.802;2023-02-28T00:09:32;101139.84;;;5.69;100.00
55675;BME280;41562;44.330;23.802;2023-02-28T00:11:59;101147.22;;;5.67;100.00
55675;BME280;41562;44.330;23.802;2023-02-28T00:14:31;101140.44;;;5.71;100.00
55675;BME280;41562;44.330;23.802;2023-02-28T00:17:00;101148.44;;;5.64;100.00
55675;BME280;41562;44.330;23.802;2023-02-28T00:19:31;101155.59;;;5.64;100.00
55675;BME280;41562;44.330;23.802;2023-02-28T00:22:01;101151.88;;;5.72;100.00
55675;BME280;41562;44.330;23.802;2023-02-28T00:24:34;101146.31;;;5.80;100.00
55675;BME280;41562;44.330;23.802;2023-02-28T00:27:04;101152.19;;;5.82;100.00
55675;BME280;41562;44.330;23.802;2023-02-28T00:29:34;101159.41;;;5.50;100.00
55675;BME280;41562;44.330;23.802;2023-02-28T00:32:04;101160.72;;;5.34;100.00
55675;BME280;41562;44.330;23.802;2023-02-28T00:34:32;101168.91;;;5.57;100.00
55675;BME280;41562;44.330;23.802;2023-02-28T00:36:59;101164.34;;;5.40;100.00
55675;BME280;41562;44.330;23.802;2023-02-28T00:39:26;101163.59;;;5.57;100.00
55675;BME280;41562;44.330;23.802;2023-02-28T00:41:55;101163.31;;;5.41;100.00
55675;BME280;41562;44.330;23.802;2023-02-28T00:44:22;101168.94;;;5.51;100.00
55675;BME280;41562;44.330;23.802;2023-02-28T00:46:49;101180.47;;;5.38;100.00
55675;BME280;41562;44.330;23.802;2023-02-28T00:49:17;101184.69;;;5.14;100.00
55675;BME280;41562;44.330;23.802;2023-02-28T00:51:44;101171.63;;;5.13;100.00
55675;BME280;41562;44.330;23.802;2023-02-28T00:54:11;101176.84;;;5.26;100.00
55675;BME280;41562;44.330;23.802;2023-02-28T00:56:44;101177.94;;;5.18;100.00
55675;BME280;41562;44.330;23.802;2023-02-28T00:59:13;101176.91;;;5.19;100.00
55675;BME280;41562;44.330;23.802;2023-02-28T01:01:40;101179.03;;;5.04;100.00
55675;BME280;41562;44.330;23.802;2023-02-28T01:04:12;101182.81;;;5.21;100.00
55675;BME280;41562;44.330;23.802;2023-02-28T01:06:45;101176.34;;;5.11;100.00
55675;BME280;41562;44.330;23.802;2023-02-28T01:09:15;101190.81;;;5.08;100.00
55675;BME280;41562;44.330;23.802;2023-02-28T01:11:42;101180.88;;;4.97;100.00
55675;BME280;41562;44.330;23.802;2023-02-28T01:14:15;101181.34;;;5.25;100.00
55675;BME280;41562;44.330;23.802;2023-02-28T01:16:42;101172.25;;;5.15;100.00
55675;BME280;41562;44.330;23.802;2023-02-28T01:19:10;101174.97;;;4.95;100.00
55675;BME280;41562;44.330;23.802;2023-02-28T01:21:37;101175.81;;;4.89;100.00
55675;BME280;41562;44.330;23.802;2023-02-28T01:24:04;101186.66;;;4.81;100.00
55675;BME280;41562;44.330;23.802;2023-02-28T01:26:32;101181.19;;;4.69;100.00
55675;BME280;41562;44.330;23.802;2023-02-28T01:29:02;101175.44;;;4.85;100.00
55675;BME280;41562;44.330;23.802;2023-02-28T01:31:30;101185.66;;;4.69;100.00
55675;BME280;41562;44.330;23.802;2023-02-28T01:33:57;101188.97;;;4.58;100.00
55675;BME280;41562;44.330;23.802;2023-02-28T01:36:24;101185.66;;;4.69;100.00
55675;BME280;41562;44.330;23.802;2023-02-28T01:38:52;101181.00;;;4.71;100.00
55675;BME280;41562;44.330;23.802;2023-02-28T01:41:22;101183.50;;;4.46;100.00
55675;BME280;41562;44.330;23.802;2023-02-28T01:46:40;101181.03;;;4.58;100.00
55675;BME280;41562;44.330;23.802;2023-02-28T01:49:16;101183.53;;;4.39;100.00
55675;BME280;41562;44.330;23.802;2023-02-28T01:51:48;101181.69;;;4.47;100.00
55675;BME280;41562;44.330;23.802;2023-02-28T01:54:22;101183.13;;;4.42;100.00
55675;BME280;41562;44.330;23.802;2023-02-28T01:56:58;101188.75;;;4.66;100.00
55675;BME280;41562;44.330;23.802;2023-02-28T01:59:41;101197.94;;;4.50;100.00
55675;BME280;41562;44.330;23.802;2023-02-28T02:02:10;101208.78;;;4.35;100.00
55675;BME280;41562;44.330;23.802;2023-02-28T02:04:55;101197.38;;;4.41;100.00
55675;BME280;41562;44.330;23.802;2023-02-28T02:07:24;101185.78;;;4.36;100.00
55675;BME280;41562;44.330;23.802;2023-02-28T02:10:15;101194.66;;;4.68;100.00
55675;BME280;41562;44.330;23.802;2023-02-28T02:18:53;101186.16;;;4.39;100.00
55675;BME280;41562;44.330;23.802;2023-02-28T02:26:54;101189.81;;;4.45;100.00
55675;BME280;41562;44.330;23.802;2023-02-28T02:36:58;101189.00;;;4.51;100.00
55675;BME280;41562;44.330;23.802;2023-02-28T02:39:45;101190.59;;;4.59;100.00
55675;BME280;41562;44.330;23.802;2023-02-28T02:42:23;101193.44;;;4.64;100.00
55675;BME280;41562;44.330;23.802;2023-02-28T02:45:06;101178.16;;;4.66;100.00
55675;BME280;41562;44.330;23.802;2023-02-28T02:47:37;101190.56;;;4.72;100.00
55675;BME280;41562;44.330;23.802;2023-02-28T02:50:08;101187.31;;;4.70;100.00
55675;BME280;41562;44.330;23.802;2023-02-28T02:52:44;101186.28;;;4.71;100.00
55675;BME280;41562;44.330;23.802;2023-02-28T02:55:14;101175.13;;;4.49;100.00
55675;BME280;41562;44.330;23.802;2023-02-28T02:57:45;101186.97;;;4.40;100.00
55675;BME280;41562;44.330;23.802;2023-02-28T03:00:20;101191.47;;;4.39;100.00
55675;BME280;41562;44.330;23.802;2023-02-28T03:02:52;101184.97;;;4.35;100.00
55675;BME280;41562;44.330;23.802;2023-02-28T03:05:28;101186.97;;;4.53;100.00
55675;BME280;41562;44.330;23.802;2023-02-28T03:07:56;101190.66;;;4.39;100.00
55675;BME280;41562;44.330;23.802;2023-02-28T03:16:33;101180.25;;;4.44;100.00
55675;BME280;41562;44.330;23.802;2023-02-28T03:24:40;101198.03;;;4.17;100.00
55675;BME280;41562;44.330;23.802;2023-02-28T03:27:17;101195.16;;;4.12;100.00
55675;BME280;41562;44.330;23.802;2023-02-28T03:32:26;101193.13;;;4.14;100.00
55675;BME280;41562;44.330;23.802;2023-02-28T03:35:14;101191.28;;;4.28;100.00
55675;BME280;41562;44.330;23.802;2023-02-28T03:37:44;101201.06;;;4.14;100.00
55675;BME280;41562;44.330;23.802;2023-02-28T03:40:16;101204.72;;;4.20;100.00
55675;BME280;41562;44.330;23.802;2023-02-28T03:42:49;101209.00;;;4.14;100.00
55675;BME280;41562;44.330;23.802;2023-02-28T03:45:21;101206.97;;;4.16;100.00
55675;BME280;41562;44.330;23.802;2023-02-28T03:47:58;101228.97;;;4.03;100.00
55675;BME280;41562;44.330;23.802;2023-02-28T03:50:39;101225.91;;;3.93;100.00
55675;BME280;41562;44.330;23.802;2023-02-28T03:53:17;101212.66;;;4.00;100.00
55675;BME280;41562;44.330;23.802;2023-02-28T03:55:49;101217.97;;;4.00;100.00
55675;BME280;41562;44.330;23.802;2023-02-28T04:01:12;101240.97;;;4.06;100.00
55675;BME280;41562;44.330;23.802;2023-02-28T04:03:41;101239.56;;;4.10;100.00
55675;BME280;41562;44.330;23.802;2023-02-28T04:06:15;101240.81;;;5.05;100.00
55675;BME280;41562;44.330;23.802;2023-02-28T04:08:43;101241.88;;;5.73;100.00
55675;BME280;41562;44.330;23.802;2023-02-28T04:11:33;101237.44;;;4.71;100.00
55675;BME280;41562;44.330;23.802;2023-02-28T04:14:03;101247.69;;;4.35;100.00
55675;BME280;41562;44.330;23.802;2023-02-28T04:16:33;101254.19;;;3.93;100.00
55675;BME280;41562;44.330;23.802;2023-02-28T04:19:06;101253.81;;;4.09;100.00
55675;BME280;41562;44.330;23.802;2023-02-28T04:21:43;101261.53;;;4.24;100.00
55675;BME280;41562;44.330;23.802;2023-02-28T04:24:13;101264.38;;;4.35;100.00
55675;BME280;41562;44.330;23.802;2023-02-28T04:26:44;101253.59;;;3.91;100.00
55675;BME280;41562;44.330;23.802;2023-02-28T04:29:17;101264.94;;;3.72;100.00
55675;BME280;41562;44.330;23.802;2023-02-28T04:31:45;101261.88;;;3.75;100.00
55675;BME280;41562;44.330;23.802;2023-02-28T04:34:12;101263.16;;;3.85;100.00
55675;BME280;41562;44.330;23.802;2023-02-28T04:36:39;101264.91;;;3.58;100.00
55675;BME280;41562;44.330;23.802;2023-02-28T04:39:16;101268.41;;;3.72;100.00
55675;BME280;41562;44.330;23.802;2023-02-28T04:41:44;101272.69;;;3.80;100.00
55675;BME280;41562;44.330;23.802;2023-02-28T04:44:13;101278.59;;;3.88;100.00
55675;BME280;41562;44.330;23.802;2023-02-28T04:46:41;101281.66;;;3.79;100.00
55675;BME280;41562;44.330;23.802;2023-02-28T04:49:12;101287.53;;;3.81;100.00
55675;BME280;41562;44.330;23.802;2023-02-28T04:51:40;101305.25;;;3.87;100.00
55675;BME280;41562;44.330;23.802;2023-02-28T04:54:08;101302.81;;;3.79;100.00
55675;BME280;41562;44.330;23.802;2023-02-28T04:56:36;101309.13;;;3.84;100.00
55675;BME280;41562;44.330;23.802;2023-02-28T04:59:03;101307.44;;;3.63;100.00
55675;BME280;41562;44.330;23.802;2023-02-28T05:01:33;101302.97;;;3.64;100.00
55675;BME280;41562;44.330;23.802;2023-02-28T05:04:03;101306.41;;;3.58;100.00
55675;BME280;41562;44.330;23.802;2023-02-28T05:06:33;101302.56;;;3.74;100.00
55675;BME280;41562;44.330;23.802;2023-02-28T05:09:00;101310.22;;;3.49;100.00
55675;BME280;41562;44.330;23.802;2023-02-28T05:11:32;101306.59;;;3.56;100.00
55675;BME280;41562;44.330;23.802;2023-02-28T05:14:17;101302.56;;;3.74;100.00
55675;BME280;41562;44.330;23.802;2023-02-28T05:16:45;101305.00;;;3.69;100.00
55675;BME280;41562;44.330;23.802;2023-02-28T05:19:12;101307.81;;;3.60;100.00
55675;BME280;41562;44.330;23.802;2023-02-28T05:21:51;101310.91;;;3.64;100.00
55675;BME280;41562;44.330;23.802;2023-02-28T05:24:19;101310.16;;;3.90;100.00
55675;BME280;41562;44.330;23.802;2023-02-28T05:26:46;101317.66;;;3.86;100.00
55675;BME280;41562;44.330;23.802;2023-02-28T05:29:13;101317.81;;;3.58;100.00
55675;BME280;41562;44.330;23.802;2023-02-28T05:31:40;101326.97;;;3.62;100.00
55675;BME280;41562;44.330;23.802;2023-02-28T05:34:08;101339.16;;;3.57;100.00
55675;BME280;41562;44.330;23.802;2023-02-28T05:36:36;101341.72;;;3.98;100.00
55675;BME280;41562;44.330;23.802;2023-02-28T05:39:05;101347.38;;;3.88;100.00
55675;BME280;41562;44.330;23.802;2023-02-28T05:41:33;101346.88;;;3.58;100.00
55675;BME280;41562;44.330;23.802;2023-02-28T05:44:24;101353.47;;;3.82;100.00
55675;BME280;41562;44.330;23.802;2023-02-28T05:47:15;101357.03;;;3.55;100.00
55675;BME280;41562;44.330;23.802;2023-02-28T05:49:43;101363.97;;;3.62;100.00
55675;BME280;41562;44.330;23.802;2023-02-28T05:52:10;101362.53;;;3.53;100.00
55675;BME280;41562;44.330;23.802;2023-02-28T05:54:37;101364.13;;;3.54;100.00
55675;BME280;41562;44.330;23.802;2023-02-28T05:57:29;101356.47;;;3.59;100.00
55675;BME280;41562;44.330;23.802;2023-02-28T05:59:56;101361.75;;;3.59;100.00
55675;BME280;41562;44.330;23.802;2023-02-28T06:02:24;101371.75;;;3.71;100.00
55675;BME280;41562;44.330;23.802;2023-02-28T06:04:53;101367.25;;;3.64;100.00
55675;BME280;41562;44.330;23.802;2023-02-28T06:07:22;101371.59;;;3.79;100.00
55675;BME280;41562;44.330;23.802;2023-02-28T06:09:50;101375.03;;;3.73;100.00
55675;BME280;41562;44.330;23.802;2023-02-28T06:12:24;101370.53;;;3.67;100.00
55675;BME280;41562;44.330;23.802;2023-02-28T06:14:52;101376.13;;;3.50;100.00
55675;BME280;41562;44.330;23.802;2023-02-28T06:17:19;101379.06;;;3.69;100.00
55675;BME280;41562;44.330;23.802;2023-02-28T06:19:51;101376.16;;;3.57;100.00
55675;BME280;41562;44.330;23.802;2023-02-28T06:22:19;101379.63;;;3.57;100.00
55675;BME280;41562;44.330;23.802;2023-02-28T06:24:47;101382.28;;;3.57;100.00
55675;BME280;41562;44.330;23.802;2023-02-28T06:27:14;101385.91;;;3.56;100.00
55675;BME280;41562;44.330;23.802;2023-02-28T06:29:42;101377.97;;;3.50;100.00
55675;BME280;41562;44.330;23.802;2023-02-28T06:32:09;101376.19;;;3.63;100.00
55675;BME280;41562;44.330;23.802;2023-02-28T06:34:36;101370.06;;;3.56;100.00
55675;BME280;41562;44.330;23.802;2023-02-28T06:37:03;101368.09;;;3.72;100.00
55675;BME280;41562;44.330;23.802;2023-02-28T06:39:31;101367.22;;;3.58;100.00
55675;BME280;41562;44.330;23.802;2023-02-28T06:41:58;101374.34;;;3.57;100.00
55675;BME280;41562;44.330;23.802;2023-02-28T06:44:25;101379.22;;;3.60;100.00
55675;BME280;41562;44.330;23.802;2023-02-28T06:46:53;101382.97;;;3.86;100.00
55675;BME280;41562;44.330;23.802;2023-02-28T06:49:20;101387.56;;;3.57;100.00
55675;BME280;41562;44.330;23.802;2023-02-28T06:51:47;101383.13;;;3.64;100.00
55675;BME280;41562;44.330;23.802;2023-02-28T06:54:14;101390.03;;;3.66;100.00
55675;BME280;41562;44.330;23.802;2023-02-28T06:56:41;101400.44;;;3.74;100.00
55675;BME280;41562;44.330;23.802;2023-02-28T06:59:10;101400.16;;;3.55;100.00
55675;BME280;41562;44.330;23.802;2023-02-28T07:01:37;101393.91;;;3.70;100.00
55675;BME280;41562;44.330;23.802;2023-02-28T07:04:05;101395.59;;;3.84;100.00
55675;BME280;41562;44.330;23.802;2023-02-28T07:06:33;101408.31;;;4.08;100.00
55675;BME280;41562;44.330;23.802;2023-02-28T07:09:00;101408.53;;;4.26;100.00
55675;BME280;41562;44.330;23.802;2023-02-28T07:11:28;101401.78;;;4.04;100.00
55675;BME280;41562;44.330;23.802;2023-02-28T07:13:56;101399.13;;;4.04;100.00
55675;BME280;41562;44.330;23.802;2023-02-28T07:16:24;101403.38;;;3.92;100.00
55675;BME280;41562;44.330;23.802;2023-02-28T07:18:53;101406.41;;;3.89;100.00
55675;BME280;41562;44.330;23.802;2023-02-28T07:21:21;101408.38;;;3.74;100.00
55675;BME280;41562;44.330;23.802;2023-02-28T07:23:49;101407.13;;;3.70;100.00
55675;BME280;41562;44.330;23.802;2023-02-28T07:26:18;101409.84;;;3.83;100.00
55675;BME280;41562;44.330;23.802;2023-02-28T07:28:47;101409.31;;;4.07;100.00
55675;BME280;41562;44.330;23.802;2023-02-28T07:31:15;101408.22;;;3.82;100.00
55675;BME280;41562;44.330;23.802;2023-02-28T07:33:43;101424.00;;;4.16;100.00
55675;BME280;41562;44.330;23.802;2023-02-28T07:36:13;101416.69;;;4.25;100.00
55675;BME280;41562;44.330;23.802;2023-02-28T07:38:46;101413.41;;;4.16;100.00
55675;BME280;41562;44.330;23.802;2023-02-28T07:41:16;101414.19;;;4.03;100.00
55675;BME280;41562;44.330;23.802;2023-02-28T07:43:44;101409.97;;;4.16;100.00
55675;BME280;41562;44.330;23.802;2023-02-28T07:46:14;101408.16;;;4.29;100.00
55675;BME280;41562;44.330;23.802;2023-02-28T07:48:43;101424.38;;;4.13;100.00
55675;BME280;41562;44.330;23.802;2023-02-28T07:51:11;101414.06;;;4.38;100.00
55675;BME280;41562;44.330;23.802;2023-02-28T07:53:38;101423.78;;;4.18;100.00
55675;BME280;41562;44.330;23.802;2023-02-28T07:56:05;101416.88;;;4.10;100.00
55675;BME280;41562;44.330;23.802;2023-02-28T07:58:33;101410.56;;;4.24;100.00
55675;BME280;41562;44.330;23.802;2023-02-28T08:01:08;101417.25;;;4.07;100.00
55675;BME280;41562;44.330;23.802;2023-02-28T08:03:36;101420.50;;;4.02;100.00
55675;BME280;41562;44.330;23.802;2023-02-28T08:06:08;101420.53;;;4.09;100.00
55675;BME280;41562;44.330;23.802;2023-02-28T08:08:41;101424.38;;;4.07;100.00
55675;BME280;41562;44.330;23.802;2023-02-28T08:11:08;101416.19;;;3.95;100.00
55675;BME280;41562;44.330;23.802;2023-02-28T08:13:36;101426.22;;;4.13;100.00
55675;BME280;41562;44.330;23.802;2023-02-28T08:16:03;101420.75;;;4.21;100.00
55675;BME280;41562;44.330;23.802;2023-02-28T08:18:32;101410.69;;;3.90;100.00
55675;BME280;41562;44.330;23.802;2023-02-28T08:20:59;101426.56;;;3.90;100.00
55675;BME280;41562;44.330;23.802;2023-02-28T08:23:26;101438.53;;;3.79;100.00
55675;BME280;41562;44.330;23.802;2023-02-28T08:25:54;101438.22;;;4.02;100.00
55675;BME280;41562;44.330;23.802;2023-02-28T08:28:23;101437.00;;;4.04;100.00
55675;BME280;41562;44.330;23.802;2023-02-28T08:30:53;101433.06;;;3.94;100.00
55675;BME280;41562;44.330;23.802;2023-02-28T08:33:21;101435.88;;;3.86;100.00
55675;BME280;41562;44.330;23.802;2023-02-28T08:35:48;101435.94;;;3.99;100.00
55675;BME280;41562;44.330;23.802;2023-02-28T08:38:15;101436.13;;;3.91;100.00
55675;BME280;41562;44.330;23.802;2023-02-28T08:40:43;101437.97;;;3.90;100.00
55675;BME280;41562;44.330;23.802;2023-02-28T08:43:11;101432.47;;;3.92;100.00
55675;BME280;41562;44.330;23.802;2023-02-28T08:45:38;101442.03;;;3.93;100.00
55675;BME280;41562;44.330;23.802;2023-02-28T08:48:05;101433.06;;;3.87;100.00
55675;BME280;41562;44.330;23.802;2023-02-28T08:50:32;101429.63;;;3.93;100.00
55675;BME280;41562;44.330;23.802;2023-02-28T08:52:59;101444.06;;;3.91;100.00
55675;BME280;41562;44.330;23.802;2023-02-28T08:55:28;101432.88;;;3.95;100.00
55675;BME280;41562;44.330;23.802;2023-02-28T08:57:55;101415.56;;;3.93;100.00
55675;BME280;41562;44.330;23.802;2023-02-28T09:00:23;101423.91;;;3.90;100.00
55675;BME280;41562;44.330;23.802;2023-02-28T09:02:50;101426.38;;;3.91;100.00
55675;BME280;41562;44.330;23.802;2023-02-28T09:05:18;101427.88;;;4.20;100.00
55675;BME280;41562;44.330;23.802;2023-02-28T09:07:45;101422.72;;;3.99;100.00
55675;BME280;41562;44.330;23.802;2023-02-28T09:10:12;101414.44;;;4.22;100.00
55675;BME280;41562;44.330;23.802;2023-02-28T09:12:39;101410.38;;;4.26;100.00
55675;BME280;41562;44.330;23.802;2023-02-28T09:15:07;101422.59;;;4.27;100.00
55675;BME280;41562;44.330;23.802;2023-02-28T09:17:34;101412.81;;;4.27;100.00
55675;BME280;41562;44.330;23.802;2023-02-28T09:20:01;101418.34;;;4.32;100.00
55675;BME280;41562;44.330;23.802;2023-02-28T09:22:29;101418.72;;;4.16;100.00
55675;BME280;41562;44.330;23.802;2023-02-28T09:24:56;101414.59;;;4.07;100.00
55675;BME280;41562;44.330;23.802;2023-02-28T09:27:24;101417.94;;;4.35;100.00
55675;BME280;41562;44.330;23.802;2023-02-28T09:29:55;101420.78;;;4.27;100.00
55675;BME280;41562;44.330;23.802;2023-02-28T09:32:27;101419.31;;;4.25;100.00
55675;BME280;41562;44.330;23.802;2023-02-28T09:34:55;101425.28;;;4.47;100.00
55675;BME280;41562;44.330;23.802;2023-02-28T09:37:23;101426.31;;;4.59;100.00
55675;BME280;41562;44.330;23.802;2023-02-28T09:39:50;101422.66;;;4.53;100.00
55675;BME280;41562;44.330;23.802;2023-02-28T09:42:21;101428.31;;;4.43;100.00
55675;BME280;41562;44.330;23.802;2023-02-28T09:44:50;101425.25;;;4.33;100.00
55675;BME280;41562;44.330;23.802;2023-02-28T09:47:47;101427.31;;;4.38;100.00
55675;BME280;41562;44.330;23.802;2023-02-28T09:53:31;101422.00;;;4.38;100.00
55675;BME280;41562;44.330;23.802;2023-02-28T09:58:39;101424.00;;;4.10;100.00
55675;BME280;41562;44.330;23.802;2023-02-28T10:01:19;101415.03;;;4.24;100.00
55675;BME280;41562;44.330;23.802;2023-02-28T10:06:49;101421.03;;;4.65;100.00
55675;BME280;41562;44.330;23.802;2023-02-28T10:09:21;101427.34;;;4.58;100.00
55675;BME280;41562;44.330;23.802;2023-02-28T10:11:54;101435.47;;;4.56;100.00
55675;BME280;41562;44.330;23.802;2023-02-28T10:14:27;101424.31;;;4.61;100.00
55675;BME280;41562;44.330;23.802;2023-02-28T10:16:58;101429.38;;;4.62;100.00
55675;BME280;41562;44.330;23.802;2023-02-28T10:20:02;101427.34;;;4.84;100.00
55675;BME280;41562;44.330;23.802;2023-02-28T10:22:44;101427.97;;;4.60;100.00
55675;BME280;41562;44.330;23.802;2023-02-28T10:25:20;101428.16;;;4.65;100.00
55675;BME280;41562;44.330;23.802;2023-02-28T10:27:49;101425.09;;;4.48;100.00
55675;BME280;41562;44.330;23.802;2023-02-28T10:30:17;101422.66;;;4.60;100.00
55675;BME280;41562;44.330;23.802;2023-02-28T10:32:50;101426.72;;;4.69;100.00
55675;BME280;41562;44.330;23.802;2023-02-28T10:37:51;101418.78;;;4.62;100.00
55675;BME280;41562;44.330;23.802;2023-02-28T10:43:20;101411.84;;;4.74;100.00
55675;BME280;41562;44.330;23.802;2023-02-28T10:45:58;101413.72;;;4.74;100.00
55675;BME280;41562;44.330;23.802;2023-02-28T10:51:35;101415.31;;;4.81;100.00
55675;BME280;41562;44.330;23.802;2023-02-28T10:54:03;101413.69;;;4.87;100.00
55675;BME280;41562;44.330;23.802;2023-02-28T10:56:32;101395.13;;;5.13;100.00
55675;BME280;41562;44.330;23.802;2023-02-28T10:59:03;101405.75;;;4.87;100.00
55675;BME280;41562;44.330;23.802;2023-02-28T11:01:48;101404.53;;;4.90;100.00
55675;BME280;41562;44.330;23.802;2023-02-28T11:06:58;101397.38;;;5.03;100.00
55675;BME280;41562;44.330;23.802;2023-02-28T11:09:39;101381.69;;;4.95;100.00
55675;BME280;41562;44.330;23.802;2023-02-28T11:12:26;101368.03;;;5.11;100.00
55675;BME280;41562;44.330;23.802;2023-02-28T11:20:25;101394.94;;;5.08;99.71
55675;BME280;41562;44.330;23.802;2023-02-28T11:22:54;101395.56;;;5.04;99.95
55675;BME280;41562;44.330;23.802;2023-02-28T11:25:50;101398.41;;;4.96;100.00
55675;BME280;41562;44.330;23.802;2023-02-28T11:28:41;101390.63;;;5.07;100.00
55675;BME280;41562;44.330;23.802;2023-02-28T11:33:52;101381.66;;;5.21;98.96
55675;BME280;41562;44.330;23.802;2023-02-28T11:36:38;101377.94;;;5.42;99.41
55675;BME280;41562;44.330;23.802;2023-02-28T11:39:11;101368.56;;;5.33;98.31
55675;BME280;41562;44.330;23.802;2023-02-28T11:47:17;101357.50;;;5.49;100.00
55675;BME280;41562;44.330;23.802;2023-02-28T11:50:19;101348.38;;;5.32;98.47
55675;BME280;41562;44.330;23.802;2023-02-28T11:52:56;101351.44;;;5.36;98.91
55675;BME280;41562;44.330;23.802;2023-02-28T11:55:27;101356.78;;;5.22;98.53
55675;BME280;41562;44.330;23.802;2023-02-28T12:03:42;101363.44;;;5.38;97.38
55675;BME280;41562;44.330;23.802;2023-02-28T12:12:24;101364.50;;;5.31;98.36
55675;BME280;41562;44.330;23.802;2023-02-28T12:20:46;101353.44;;;5.47;97.38
55675;BME280;41562;44.330;23.802;2023-02-28T12:26:27;101341.22;;;5.33;98.63
55675;BME280;41562;44.330;23.802;2023-02-28T12:29:27;101341.84;;;5.35;98.49
55675;BME280;41562;44.330;23.802;2023-02-28T12:32:20;101336.34;;;5.36;98.42
55675;BME280;41562;44.330;23.802;2023-02-28T12:35:22;101346.91;;;5.43;99.01
55675;BME280;41562;44.330;23.802;2023-02-28T12:38:18;101342.72;;;5.73;98.47
55675;BME280;41562;44.330;23.802;2023-02-28T12:40:56;101343.56;;;5.60;96.84
55675;BME280;41562;44.330;23.802;2023-02-28T12:43:30;101345.50;;;5.34;97.48
55675;BME280;41562;44.330;23.802;2023-02-28T12:48:53;101344.78;;;5.64;97.79
55675;BME280;41562;44.330;23.802;2023-02-28T12:51:24;101342.81;;;5.47;97.73
55675;BME280;41562;44.330;23.802;2023-02-28T13:10:22;101335.88;;;5.46;96.54
55675;BME280;41562;44.330;23.802;2023-02-28T13:12:53;101336.09;;;5.38;97.21
55675;BME280;41562;44.330;23.802;2023-02-28T13:15:24;101338.47;;;5.59;97.23
55675;BME280;41562;44.330;23.802;2023-02-28T13:17:56;101335.03;;;5.52;99.64
55675;BME280;41562;44.330;23.802;2023-02-28T13:20:34;101342.03;;;5.40;97.96
55675;BME280;41562;44.330;23.802;2023-02-28T13:23:01;101336.91;;;5.45;97.83
55675;BME280;41562;44.330;23.802;2023-02-28T13:28:12;101348.94;;;5.47;98.40
55675;BME280;41562;44.330;23.802;2023-02-28T13:33:40;101341.16;;;5.52;98.14
55675;BME280;41562;44.330;23.802;2023-02-28T13:36:28;101334.81;;;5.60;97.30
55675;BME280;41562;44.330;23.802;2023-02-28T13:39:01;101337.50;;;5.47;97.47
55675;BME280;41562;44.330;23.802;2023-02-28T13:46:32;101333.44;;;5.44;100.00
55675;BME280;41562;44.330;23.802;2023-02-28T14:00:23;101330.56;;;5.46;99.27
55675;BME280;41562;44.330;23.802;2023-02-28T14:11:43;101332.16;;;5.60;100.00
55675;BME280;41562;44.330;23.802;2023-02-28T14:17:05;101330.66;;;5.71;100.00
55675;BME280;41562;44.330;23.802;2023-02-28T14:19:36;101327.69;;;5.54;100.00
55675;BME280;41562;44.330;23.802;2023-02-28T14:22:39;101326.94;;;5.34;100.00
55675;BME280;41562;44.330;23.802;2023-02-28T14:25:33;101324.44;;;5.52;100.00
55675;BME280;41562;44.330;23.802;2023-02-28T14:28:10;101311.88;;;5.72;100.00
55675;BME280;41562;44.330;23.802;2023-02-28T14:39:05;101308.09;;;5.55;100.00
55675;BME280;41562;44.330;23.802;2023-02-28T14:41:36;101306.28;;;5.93;100.00
55675;BME280;41562;44.330;23.802;2023-02-28T14:44:20;101313.41;;;5.55;100.00
55675;BME280;41562;44.330;23.802;2023-02-28T14:47:03;101308.06;;;5.61;100.00
55675;BME280;41562;44.330;23.802;2023-02-28T14:49:44;101298.81;;;5.71;100.00
55675;BME280;41562;44.330;23.802;2023-02-28T14:52:17;101301.66;;;5.76;100.00
55675;BME280;41562;44.330;23.802;2023-02-28T14:54:52;101307.53;;;5.84;100.00
55675;BME280;41562;44.330;23.802;2023-02-28T14:57:31;101303.16;;;5.65;100.00
55675;BME280;41562;44.330;23.802;2023-02-28T15:00:00;101301.88;;;5.74;100.00
55675;BME280;41562;44.330;23.802;2023-02-28T15:02:34;101298.28;;;5.62;100.00
55675;BME280;41562;44.330;23.802;2023-02-28T15:05:23;101309.81;;;5.36;100.00
55675;BME280;41562;44.330;23.802;2023-02-28T15:08:05;101300.56;;;5.52;100.00
55675;BME280;41562;44.330;23.802;2023-02-28T15:10:33;101310.19;;;5.40;100.00
55675;BME280;41562;44.330;23.802;2023-02-28T15:13:12;101317.56;;;5.31;100.00
55675;BME280;41562;44.330;23.802;2023-02-28T15:18:59;101308.56;;;5.39;100.00
55675;BME280;41562;44.330;23.802;2023-02-28T15:21:39;101318.59;;;5.37;100.00
55675;BME280;41562;44.330;23.802;2023-02-28T15:24:27;101315.75;;;5.25;100.00
55675;BME280;41562;44.330;23.802;2023-02-28T15:26:59;101327.03;;;5.07;100.00
55675;BME280;41562;44.330;23.802;2023-02-28T15:29:39;101324.75;;;5.24;100.00
55675;BME280;41562;44.330;23.802;2023-02-28T15:32:37;101323.69;;;5.25;100.00
55675;BME280;41562;44.330;23.802;2023-02-28T15:37:58;101327.16;;;5.25;100.00
55675;BME280;41562;44.330;23.802;2023-02-28T15:40:28;101327.81;;;5.21;100.00
55675;BME280;41562;44.330;23.802;2023-02-28T15:43:13;101329.81;;;5.25;100.00
55675;BME280;41562;44.330;23.802;2023-02-28T15:46:08;101326.56;;;5.30;100.00
55675;BME280;41562;44.330;23.802;2023-02-28T15:48:43;101333.88;;;5.35;100.00